Terminal Aerodrome Forecast
Issued by NWS Austin/San Antonio, TX

Home | Current Version | Previous Version | Text Only | Print | Product List | Glossary On
Versions: 1 2 3 4 5 6 7 8 9 10 11 12 13 14 15 16 17 18 19 20 21 22
000
FTUS44 KEWX 170831 AAC
TAFSAT
TAF AMD
KSAT 170831Z 1709/1812 05006KT 1SM BR OVC002
     FM171100 31002KT 1/2SM FG VV002
     FM171700 19004KT P6SM OVC025
     FM180800 01003KT 5SM -DZ BR OVC007=

USA.gov is the U.S. government's official web portal to all federal, state and local government web resources and services.